sensor_id;sensor_type;location;lat;lon;timestamp;temperature;humidity
1614;DHT22;800;48.824;9.346;2024-01-11T00:00:44;3.10;50.30
1614;DHT22;800;48.824;9.346;2024-01-11T00:03:09;3.10;50.30
1614;DHT22;800;48.824;9.346;2024-01-11T00:05:35;3.10;50.40
1614;DHT22;800;48.824;9.346;2024-01-11T00:08:01;3.10;50.30
1614;DHT22;800;48.824;9.346;2024-01-11T00:10:27;3.00;50.20
1614;DHT22;800;48.824;9.346;2024-01-11T00:12:52;3.00;50.20
1614;DHT22;800;48.824;9.346;2024-01-11T00:15:18;3.00;50.10
1614;DHT22;800;48.824;9.346;2024-01-11T00:17:43;3.00;50.20
1614;DHT22;800;48.824;9.346;2024-01-11T00:20:09;2.90;50.30
1614;DHT22;800;48.824;9.346;2024-01-11T00:22:36;2.90;50.60
1614;DHT22;800;48.824;9.346;2024-01-11T00:25:01;2.90;50.80
1614;DHT22;800;48.824;9.346;2024-01-11T00:27:27;2.90;50.80
1614;DHT22;800;48.824;9.346;2024-01-11T00:29:53;2.90;50.80
1614;DHT22;800;48.824;9.346;2024-01-11T00:32:19;2.80;50.80
1614;DHT22;800;48.824;9.346;2024-01-11T00:34:46;2.80;51.00
1614;DHT22;800;48.824;9.346;2024-01-11T00:37:12;2.80;51.00
1614;DHT22;800;48.824;9.346;2024-01-11T00:39:37;2.80;50.80
1614;DHT22;800;48.824;9.346;2024-01-11T00:42:03;2.70;50.80
1614;DHT22;800;48.824;9.346;2024-01-11T00:44:29;2.70;50.80
1614;DHT22;800;48.824;9.346;2024-01-11T00:46:55;2.70;50.90
1614;DHT22;800;48.824;9.346;2024-01-11T00:49:21;2.80;50.80
1614;DHT22;800;48.824;9.346;2024-01-11T00:51:47;2.80;50.70
1614;DHT22;800;48.824;9.346;2024-01-11T00:54:12;2.80;50.60
1614;DHT22;800;48.824;9.346;2024-01-11T00:56:38;2.70;50.30
1614;DHT22;800;48.824;9.346;2024-01-11T00:59:04;2.70;50.20
1614;DHT22;800;48.824;9.346;2024-01-11T01:01:29;2.70;50.30
1614;DHT22;800;48.824;9.346;2024-01-11T01:03:55;2.70;50.50
1614;DHT22;800;48.824;9.346;2024-01-11T01:06:21;2.70;50.70
1614;DHT22;800;48.824;9.346;2024-01-11T01:08:46;2.70;51.00
1614;DHT22;800;48.824;9.346;2024-01-11T01:11:12;2.70;51.10
1614;DHT22;800;48.824;9.346;2024-01-11T01:13:37;2.60;51.00
1614;DHT22;800;48.824;9.346;2024-01-11T01:16:03;2.60;50.90
1614;DHT22;800;48.824;9.346;2024-01-11T01:18:29;2.60;50.90
1614;DHT22;800;48.824;9.346;2024-01-11T01:20:55;2.60;50.90
1614;DHT22;800;48.824;9.346;2024-01-11T01:23:20;2.60;50.80
1614;DHT22;800;48.824;9.346;2024-01-11T01:25:46;2.50;50.60
1614;DHT22;800;48.824;9.346;2024-01-11T01:28:12;2.50;50.50
1614;DHT22;800;48.824;9.346;2024-01-11T01:30:37;2.50;50.40
1614;DHT22;800;48.824;9.346;2024-01-11T01:33:03;2.50;50.40
1614;DHT22;800;48.824;9.346;2024-01-11T01:35:29;2.40;50.40
1614;DHT22;800;48.824;9.346;2024-01-11T01:37:55;2.40;50.60
1614;DHT22;800;48.824;9.346;2024-01-11T01:40:20;2.40;50.70
1614;DHT22;800;48.824;9.346;2024-01-11T01:42:46;2.40;50.90
1614;DHT22;800;48.824;9.346;2024-01-11T01:45:12;2.40;51.30
1614;DHT22;800;48.824;9.346;2024-01-11T01:47:40;2.40;51.40
1614;DHT22;800;48.824;9.346;2024-01-11T01:50:07;2.30;51.20
1614;DHT22;800;48.824;9.346;2024-01-11T01:52:33;2.30;51.30
1614;DHT22;800;48.824;9.346;2024-01-11T01:55:01;2.40;51.60
1614;DHT22;800;48.824;9.346;2024-01-11T01:57:28;2.40;51.60
1614;DHT22;800;48.824;9.346;2024-01-11T01:59:56;2.40;51.40
1614;DHT22;800;48.824;9.346;2024-01-11T02:02:22;2.40;51.30
1614;DHT22;800;48.824;9.346;2024-01-11T02:04:48;2.40;51.20
1614;DHT22;800;48.824;9.346;2024-01-11T02:07:14;2.40;51.40
1614;DHT22;800;48.824;9.346;2024-01-11T02:09:40;2.50;51.40
1614;DHT22;800;48.824;9.346;2024-01-11T02:12:06;2.40;51.20
1614;DHT22;800;48.824;9.346;2024-01-11T02:14:37;2.40;51.30
1614;DHT22;800;48.824;9.346;2024-01-11T02:17:03;2.40;51.30
1614;DHT22;800;48.824;9.346;2024-01-11T02:19:29;2.30;51.00
1614;DHT22;800;48.824;9.346;2024-01-11T02:21:54;2.30;51.20
1614;DHT22;800;48.824;9.346;2024-01-11T02:24:20;2.30;51.30
1614;DHT22;800;48.824;9.346;2024-01-11T02:27:03;2.30;51.70
1614;DHT22;800;48.824;9.346;2024-01-11T02:29:30;2.30;51.00
1614;DHT22;800;48.824;9.346;2024-01-11T02:31:56;2.30;51.20
1614;DHT22;800;48.824;9.346;2024-01-11T02:34:26;2.20;51.30
1614;DHT22;800;48.824;9.346;2024-01-11T02:36:53;2.20;51.50
1614;DHT22;800;48.824;9.346;2024-01-11T02:39:20;2.20;51.50
1614;DHT22;800;48.824;9.346;2024-01-11T02:41:49;2.20;51.30
1614;DHT22;800;48.824;9.346;2024-01-11T02:44:15;2.20;51.20
1614;DHT22;800;48.824;9.346;2024-01-11T02:46:41;2.20;51.00
1614;DHT22;800;48.824;9.346;2024-01-11T02:49:06;2.10;50.90
1614;DHT22;800;48.824;9.346;2024-01-11T02:51:32;2.10;50.90
1614;DHT22;800;48.824;9.346;2024-01-11T02:53:57;2.10;51.10
1614;DHT22;800;48.824;9.346;2024-01-11T02:56:23;2.10;51.10
1614;DHT22;800;48.824;9.346;2024-01-11T02:58:49;2.10;51.00
1614;DHT22;800;48.824;9.346;2024-01-11T03:01:15;2.10;51.00
1614;DHT22;800;48.824;9.346;2024-01-11T03:03:40;2.10;51.30
1614;DHT22;800;48.824;9.346;2024-01-11T03:06:06;2.00;51.40
1614;DHT22;800;48.824;9.346;2024-01-11T03:08:31;2.00;51.50
1614;DHT22;800;48.824;9.346;2024-01-11T03:10:57;2.10;51.40
1614;DHT22;800;48.824;9.346;2024-01-11T03:13:23;2.10;51.20
1614;DHT22;800;48.824;9.346;2024-01-11T03:15:48;2.10;51.10
1614;DHT22;800;48.824;9.346;2024-01-11T03:18:14;2.00;51.00
1614;DHT22;800;48.824;9.346;2024-01-11T03:20:40;1.90;51.00
1614;DHT22;800;48.824;9.346;2024-01-11T03:23:05;1.80;51.10
1614;DHT22;800;48.824;9.346;2024-01-11T03:25:31;1.80;51.20
1614;DHT22;800;48.824;9.346;2024-01-11T03:27:58;1.80;51.30
1614;DHT22;800;48.824;9.346;2024-01-11T03:30:24;1.80;51.30
1614;DHT22;800;48.824;9.346;2024-01-11T03:32:49;1.70;51.20
1614;DHT22;800;48.824;9.346;2024-01-11T03:35:15;1.70;51.10
1614;DHT22;800;48.824;9.346;2024-01-11T03:37:41;1.80;51.00
1614;DHT22;800;48.824;9.346;2024-01-11T03:40:07;1.70;51.10
1614;DHT22;800;48.824;9.346;2024-01-11T03:42:32;1.80;51.40
1614;DHT22;800;48.824;9.346;2024-01-11T03:44:58;1.80;51.60
1614;DHT22;800;48.824;9.346;2024-01-11T03:47:23;1.70;51.60
1614;DHT22;800;48.824;9.346;2024-01-11T03:49:49;1.80;51.70
1614;DHT22;800;48.824;9.346;2024-01-11T03:52:15;1.70;51.70
1614;DHT22;800;48.824;9.346;2024-01-11T03:54:40;1.70;51.50
1614;DHT22;800;48.824;9.346;2024-01-11T03:57:06;1.70;51.30
1614;DHT22;800;48.824;9.346;2024-01-11T03:59:32;1.70;51.30
1614;DHT22;800;48.824;9.346;2024-01-11T04:01:59;1.70;51.40
1614;DHT22;800;48.824;9.346;2024-01-11T04:04:25;1.70;51.70
1614;DHT22;800;48.824;9.346;2024-01-11T04:06:51;1.60;52.10
1614;DHT22;800;48.824;9.346;2024-01-11T04:09:17;1.60;52.20
1614;DHT22;800;48.824;9.346;2024-01-11T04:11:42;1.60;51.90
1614;DHT22;800;48.824;9.346;2024-01-11T04:14:08;1.60;51.80
1614;DHT22;800;48.824;9.346;2024-01-11T04:16:33;1.70;52.00
1614;DHT22;800;48.824;9.346;2024-01-11T04:18:59;1.60;51.80
1614;DHT22;800;48.824;9.346;2024-01-11T04:21:26;1.70;51.60
1614;DHT22;800;48.824;9.346;2024-01-11T04:23:55;1.60;51.40
1614;DHT22;800;48.824;9.346;2024-01-11T04:26:21;1.60;51.30
1614;DHT22;800;48.824;9.346;2024-01-11T04:28:47;1.60;51.00
1614;DHT22;800;48.824;9.346;2024-01-11T04:31:14;1.50;51.30
1614;DHT22;800;48.824;9.346;2024-01-11T04:33:41;1.50;51.40
1614;DHT22;800;48.824;9.346;2024-01-11T04:36:08;1.50;51.50
1614;DHT22;800;48.824;9.346;2024-01-11T04:38:33;1.50;51.60
1614;DHT22;800;48.824;9.346;2024-01-11T04:40:59;1.40;52.10
1614;DHT22;800;48.824;9.346;2024-01-11T04:43:24;1.50;52.20
1614;DHT22;800;48.824;9.346;2024-01-11T04:45:51;1.50;52.00
1614;DHT22;800;48.824;9.346;2024-01-11T04:48:16;1.60;51.70
1614;DHT22;800;48.824;9.346;2024-01-11T04:50:43;1.60;51.60
1614;DHT22;800;48.824;9.346;2024-01-11T04:53:09;1.60;51.40
1614;DHT22;800;48.824;9.346;2024-01-11T04:55:35;1.60;51.30
1614;DHT22;800;48.824;9.346;2024-01-11T04:58:00;1.60;51.10
1614;DHT22;800;48.824;9.346;2024-01-11T05:00:26;1.60;51.10
1614;DHT22;800;48.824;9.346;2024-01-11T05:02:51;1.50;51.20
1614;DHT22;800;48.824;9.346;2024-01-11T05:05:17;1.50;51.40
1614;DHT22;800;48.824;9.346;2024-01-11T05:07:42;1.50;51.40
1614;DHT22;800;48.824;9.346;2024-01-11T05:10:08;1.50;51.40
1614;DHT22;800;48.824;9.346;2024-01-11T05:12:34;1.50;51.40
1614;DHT22;800;48.824;9.346;2024-01-11T05:14:59;1.50;51.50
1614;DHT22;800;48.824;9.346;2024-01-11T05:17:26;1.50;51.40
1614;DHT22;800;48.824;9.346;2024-01-11T05:19:51;1.50;51.30
1614;DHT22;800;48.824;9.346;2024-01-11T05:22:17;1.50;51.20
1614;DHT22;800;48.824;9.346;2024-01-11T05:24:43;1.50;51.10
1614;DHT22;800;48.824;9.346;2024-01-11T05:27:09;1.50;50.80
1614;DHT22;800;48.824;9.346;2024-01-11T05:29:34;1.50;50.80
1614;DHT22;800;48.824;9.346;2024-01-11T05:32:00;1.50;50.60
1614;DHT22;800;48.824;9.346;2024-01-11T05:34:25;1.40;50.60
1614;DHT22;800;48.824;9.346;2024-01-11T05:36:51;1.40;50.70
1614;DHT22;800;48.824;9.346;2024-01-11T05:39:16;1.40;50.90
1614;DHT22;800;48.824;9.346;2024-01-11T05:41:45;1.40;51.20
1614;DHT22;800;48.824;9.346;2024-01-11T05:44:11;1.40;51.30
1614;DHT22;800;48.824;9.346;2024-01-11T05:46:36;1.40;51.50
1614;DHT22;800;48.824;9.346;2024-01-11T05:49:02;1.40;51.70
1614;DHT22;800;48.824;9.346;2024-01-11T05:51:28;1.40;51.80
1614;DHT22;800;48.824;9.346;2024-01-11T05:53:54;1.40;51.70
1614;DHT22;800;48.824;9.346;2024-01-11T05:56:20;1.40;51.60
1614;DHT22;800;48.824;9.346;2024-01-11T05:58:46;1.40;51.50
1614;DHT22;800;48.824;9.346;2024-01-11T06:01:11;1.30;51.30
1614;DHT22;800;48.824;9.346;2024-01-11T06:03:37;1.30;51.30
1614;DHT22;800;48.824;9.346;2024-01-11T06:06:05;1.30;51.30
1614;DHT22;800;48.824;9.346;2024-01-11T06:08:31;1.30;51.00
1614;DHT22;800;48.824;9.346;2024-01-11T06:10:57;1.20;51.00
1614;DHT22;800;48.824;9.346;2024-01-11T06:13:23;1.20;51.30
1614;DHT22;800;48.824;9.346;2024-01-11T06:15:49;1.10;52.30
1614;DHT22;800;48.824;9.346;2024-01-11T06:18:15;1.10;52.10
1614;DHT22;800;48.824;9.346;2024-01-11T06:20:41;1.20;52.20
1614;DHT22;800;48.824;9.346;2024-01-11T06:23:07;1.30;52.10
1614;DHT22;800;48.824;9.346;2024-01-11T06:25:32;1.40;52.50
1614;DHT22;800;48.824;9.346;2024-01-11T06:27:59;1.90;53.10
1614;DHT22;800;48.824;9.346;2024-01-11T06:30:24;2.40;52.20
1614;DHT22;800;48.824;9.346;2024-01-11T06:32:50;2.80;50.30
1614;DHT22;800;48.824;9.346;2024-01-11T06:35:15;3.20;49.80
1614;DHT22;800;48.824;9.346;2024-01-11T06:37:41;3.40;47.90
1614;DHT22;800;48.824;9.346;2024-01-11T06:40:07;3.40;47.20
1614;DHT22;800;48.824;9.346;2024-01-11T06:42:34;3.30;46.80
1614;DHT22;800;48.824;9.346;2024-01-11T06:44:59;3.00;46.70
1614;DHT22;800;48.824;9.346;2024-01-11T06:47:25;2.80;47.10
1614;DHT22;800;48.824;9.346;2024-01-11T06:49:51;2.60;47.60
1614;DHT22;800;48.824;9.346;2024-01-11T06:52:16;2.50;47.90
1614;DHT22;800;48.824;9.346;2024-01-11T06:54:42;2.30;48.10
1614;DHT22;800;48.824;9.346;2024-01-11T06:57:07;2.20;48.50
1614;DHT22;800;48.824;9.346;2024-01-11T06:59:33;2.10;48.60
1614;DHT22;800;48.824;9.346;2024-01-11T07:01:59;2.00;48.80
1614;DHT22;800;48.824;9.346;2024-01-11T07:04:24;1.90;49.20
1614;DHT22;800;48.824;9.346;2024-01-11T07:06:50;1.80;49.40
1614;DHT22;800;48.824;9.346;2024-01-11T07:09:15;1.70;49.60
1614;DHT22;800;48.824;9.346;2024-01-11T07:11:42;1.70;49.50
1614;DHT22;800;48.824;9.346;2024-01-11T07:14:09;1.60;49.40
1614;DHT22;800;48.824;9.346;2024-01-11T07:16:34;1.60;49.40
1614;DHT22;800;48.824;9.346;2024-01-11T07:19:00;1.50;49.50
1614;DHT22;800;48.824;9.346;2024-01-11T07:21:26;1.40;49.60
1614;DHT22;800;48.824;9.346;2024-01-11T07:24:01;1.40;49.80
1614;DHT22;800;48.824;9.346;2024-01-11T07:26:27;1.30;49.80
1614;DHT22;800;48.824;9.346;2024-01-11T07:28:53;1.30;50.20
1614;DHT22;800;48.824;9.346;2024-01-11T07:31:20;1.20;50.60
1614;DHT22;800;48.824;9.346;2024-01-11T07:33:46;1.30;50.80
1614;DHT22;800;48.824;9.346;2024-01-11T07:36:11;1.50;50.60
1614;DHT22;800;48.824;9.346;2024-01-11T07:38:37;1.80;50.40
1614;DHT22;800;48.824;9.346;2024-01-11T07:41:03;2.00;49.90
1614;DHT22;800;48.824;9.346;2024-01-11T07:43:28;2.30;49.40
1614;DHT22;800;48.824;9.346;2024-01-11T07:45:54;2.70;49.00
1614;DHT22;800;48.824;9.346;2024-01-11T07:48:22;3.10;48.10
1614;DHT22;800;48.824;9.346;2024-01-11T07:50:48;3.50;47.30
1614;DHT22;800;48.824;9.346;2024-01-11T07:53:14;3.90;46.60
1614;DHT22;800;48.824;9.346;2024-01-11T07:55:40;4.20;46.00
1614;DHT22;800;48.824;9.346;2024-01-11T07:58:06;4.60;45.40
1614;DHT22;800;48.824;9.346;2024-01-11T08:00:32;4.80;44.60
1614;DHT22;800;48.824;9.346;2024-01-11T08:02:57;5.10;44.20
1614;DHT22;800;48.824;9.346;2024-01-11T08:05:23;5.30;43.50
1614;DHT22;800;48.824;9.346;2024-01-11T08:07:48;5.40;43.00
1614;DHT22;800;48.824;9.346;2024-01-11T08:10:14;5.50;42.90
1614;DHT22;800;48.824;9.346;2024-01-11T08:12:40;5.40;43.00
1614;DHT22;800;48.824;9.346;2024-01-11T08:15:05;5.10;44.00
1614;DHT22;800;48.824;9.346;2024-01-11T08:17:31;4.90;43.90
1614;DHT22;800;48.824;9.346;2024-01-11T08:19:56;4.60;44.30
1614;DHT22;800;48.824;9.346;2024-01-11T08:22:22;4.40;44.90
1614;DHT22;800;48.824;9.346;2024-01-11T08:24:48;4.10;45.40
1614;DHT22;800;48.824;9.346;2024-01-11T08:27:15;3.80;46.20
1614;DHT22;800;48.824;9.346;2024-01-11T08:29:42;3.70;46.70
1614;DHT22;800;48.824;9.346;2024-01-11T08:32:08;3.50;47.10
1614;DHT22;800;48.824;9.346;2024-01-11T08:34:34;3.40;47.50
1614;DHT22;800;48.824;9.346;2024-01-11T08:36:59;3.30;48.00
1614;DHT22;800;48.824;9.346;2024-01-11T08:39:25;3.20;48.70
1614;DHT22;800;48.824;9.346;2024-01-11T08:41:51;3.20;49.10
1614;DHT22;800;48.824;9.346;2024-01-11T08:44:18;3.10;49.30
1614;DHT22;800;48.824;9.346;2024-01-11T08:46:43;3.10;49.40
1614;DHT22;800;48.824;9.346;2024-01-11T08:49:09;3.10;49.80
1614;DHT22;800;48.824;9.346;2024-01-11T08:51:34;3.10;49.50
1614;DHT22;800;48.824;9.346;2024-01-11T08:54:00;3.10;49.60
1614;DHT22;800;48.824;9.346;2024-01-11T08:56:26;3.10;49.80
1614;DHT22;800;48.824;9.346;2024-01-11T08:58:51;3.10;49.80
1614;DHT22;800;48.824;9.346;2024-01-11T09:01:17;3.10;49.70
1614;DHT22;800;48.824;9.346;2024-01-11T09:03:43;3.10;49.90
1614;DHT22;800;48.824;9.346;2024-01-11T09:06:09;3.10;50.40
1614;DHT22;800;48.824;9.346;2024-01-11T09:08:35;3.10;50.50
1614;DHT22;800;48.824;9.346;2024-01-11T09:11:01;3.10;50.80
1614;DHT22;800;48.824;9.346;2024-01-11T09:13:27;3.10;50.90
1614;DHT22;800;48.824;9.346;2024-01-11T09:15:53;3.20;51.10
1614;DHT22;800;48.824;9.346;2024-01-11T09:18:19;3.30;51.40
1614;DHT22;800;48.824;9.346;2024-01-11T09:20:45;3.40;51.60
1614;DHT22;800;48.824;9.346;2024-01-11T09:23:11;3.40;51.60
1614;DHT22;800;48.824;9.346;2024-01-11T09:25:37;3.50;51.70
1614;DHT22;800;48.824;9.346;2024-01-11T09:28:03;3.20;52.40
1614;DHT22;800;48.824;9.346;2024-01-11T09:30:29;3.20;52.80
1614;DHT22;800;48.824;9.346;2024-01-11T09:32:54;3.40;53.00
1614;DHT22;800;48.824;9.346;2024-01-11T09:35:21;3.60;52.80
1614;DHT22;800;48.824;9.346;2024-01-11T09:37:47;3.80;52.50
1614;DHT22;800;48.824;9.346;2024-01-11T09:40:13;4.00;52.30
1614;DHT22;800;48.824;9.346;2024-01-11T09:42:39;4.20;52.10
1614;DHT22;800;48.824;9.346;2024-01-11T09:45:08;4.30;52.00
1614;DHT22;800;48.824;9.346;2024-01-11T09:47:36;4.60;51.70
1614;DHT22;800;48.824;9.346;2024-01-11T09:50:03;4.80;51.60
1614;DHT22;800;48.824;9.346;2024-01-11T09:52:29;4.90;50.70
1614;DHT22;800;48.824;9.346;2024-01-11T09:55:00;5.00;50.40
1614;DHT22;800;48.824;9.346;2024-01-11T09:57:30;5.30;49.80
1614;DHT22;800;48.824;9.346;2024-01-11T09:59:57;5.60;49.10
1614;DHT22;800;48.824;9.346;2024-01-11T10:02:24;5.80;48.60
1614;DHT22;800;48.824;9.346;2024-01-11T10:04:50;6.10;48.20
1614;DHT22;800;48.824;9.346;2024-01-11T10:07:19;6.30;47.70
1614;DHT22;800;48.824;9.346;2024-01-11T10:09:46;6.50;47.30
1614;DHT22;800;48.824;9.346;2024-01-11T10:12:13;6.70;46.70
1614;DHT22;800;48.824;9.346;2024-01-11T10:14:38;6.80;45.90
1614;DHT22;800;48.824;9.346;2024-01-11T10:17:04;6.80;45.70
1614;DHT22;800;48.824;9.346;2024-01-11T10:19:30;6.90;45.40
1614;DHT22;800;48.824;9.346;2024-01-11T10:21:57;7.00;45.20
1614;DHT22;800;48.824;9.346;2024-01-11T10:24:24;7.10;44.30
1614;DHT22;800;48.824;9.346;2024-01-11T10:26:55;7.00;44.10
1614;DHT22;800;48.824;9.346;2024-01-11T10:29:20;7.00;44.60
1614;DHT22;800;48.824;9.346;2024-01-11T10:31:46;7.00;44.50
1614;DHT22;800;48.824;9.346;2024-01-11T10:34:11;7.10;44.40
1614;DHT22;800;48.824;9.346;2024-01-11T10:36:37;7.30;44.20
1614;DHT22;800;48.824;9.346;2024-01-11T10:39:03;7.50;44.00
1614;DHT22;800;48.824;9.346;2024-01-11T10:41:32;7.60;43.80
1614;DHT22;800;48.824;9.346;2024-01-11T10:44:02;7.70;43.90
1614;DHT22;800;48.824;9.346;2024-01-11T10:46:29;7.80;43.80
1614;DHT22;800;48.824;9.346;2024-01-11T10:48:57;7.90;43.90
1614;DHT22;800;48.824;9.346;2024-01-11T10:51:26;7.90;44.10
1614;DHT22;800;48.824;9.346;2024-01-11T10:53:53;8.10;43.80
1614;DHT22;800;48.824;9.346;2024-01-11T10:56:19;8.30;43.40
1614;DHT22;800;48.824;9.346;2024-01-11T10:58:45;8.40;43.20
1614;DHT22;800;48.824;9.346;2024-01-11T11:01:12;8.50;42.30
1614;DHT22;800;48.824;9.346;2024-01-11T11:03:38;8.60;42.60
1614;DHT22;800;48.824;9.346;2024-01-11T11:06:05;8.60;42.50
1614;DHT22;800;48.824;9.346;2024-01-11T11:08:32;8.80;42.40
1614;DHT22;800;48.824;9.346;2024-01-11T11:10:59;8.80;42.10
1614;DHT22;800;48.824;9.346;2024-01-11T11:13:25;8.90;41.60
1614;DHT22;800;48.824;9.346;2024-01-11T11:15:52;9.00;41.50
1614;DHT22;800;48.824;9.346;2024-01-11T11:18:19;9.10;41.60
1614;DHT22;800;48.824;9.346;2024-01-11T11:20:45;9.20;41.50
1614;DHT22;800;48.824;9.346;2024-01-11T11:23:13;9.10;41.90
1614;DHT22;800;48.824;9.346;2024-01-11T11:25:40;9.20;42.00
1614;DHT22;800;48.824;9.346;2024-01-11T11:28:06;9.40;42.10
1614;DHT22;800;48.824;9.346;2024-01-11T11:30:39;9.20;41.60
1614;DHT22;800;48.824;9.346;2024-01-11T11:33:17;9.10;41.90
1614;DHT22;800;48.824;9.346;2024-01-11T11:35:43;9.10;42.00
1614;DHT22;800;48.824;9.346;2024-01-11T11:38:20;9.10;41.90
1614;DHT22;800;48.824;9.346;2024-01-11T11:40:52;9.10;41.90
1614;DHT22;800;48.824;9.346;2024-01-11T11:43:18;9.10;41.70
1614;DHT22;800;48.824;9.346;2024-01-11T11:45:46;9.00;42.20
1614;DHT22;800;48.824;9.346;2024-01-11T11:51:07;8.80;42.30
1614;DHT22;800;48.824;9.346;2024-01-11T11:53:39;8.80;42.50
1614;DHT22;800;48.824;9.346;2024-01-11T11:56:06;8.70;42.80
1614;DHT22;800;48.824;9.346;2024-01-11T11:58:33;8.60;42.90
1614;DHT22;800;48.824;9.346;2024-01-11T12:01:00;8.60;43.00
1614;DHT22;800;48.824;9.346;2024-01-11T12:03:29;8.60;43.20
1614;DHT22;800;48.824;9.346;2024-01-11T12:05:59;8.50;42.60
1614;DHT22;800;48.824;9.346;2024-01-11T12:08:25;8.50;42.90
1614;DHT22;800;48.824;9.346;2024-01-11T12:10:52;8.50;43.30
1614;DHT22;800;48.824;9.346;2024-01-11T12:13:20;8.50;43.00
1614;DHT22;800;48.824;9.346;2024-01-11T12:15:46;8.40;43.50
1614;DHT22;800;48.824;9.346;2024-01-11T12:18:12;8.40;43.60
1614;DHT22;800;48.824;9.346;2024-01-11T12:20:37;8.50;43.50
1614;DHT22;800;48.824;9.346;2024-01-11T12:23:03;8.70;43.50
1614;DHT22;800;48.824;9.346;2024-01-11T12:25:31;8.70;43.20
1614;DHT22;800;48.824;9.346;2024-01-11T12:27:57;8.80;43.00
1614;DHT22;800;48.824;9.346;2024-01-11T12:30:23;8.90;42.90
1614;DHT22;800;48.824;9.346;2024-01-11T12:32:50;8.90;42.60
1614;DHT22;800;48.824;9.346;2024-01-11T12:35:16;8.90;42.80
1614;DHT22;800;48.824;9.346;2024-01-11T12:37:59;8.90;43.40
1614;DHT22;800;48.824;9.346;2024-01-11T12:40:25;9.10;42.90
1614;DHT22;800;48.824;9.346;2024-01-11T12:42:52;9.20;42.20
1614;DHT22;800;48.824;9.346;2024-01-11T12:45:19;9.40;42.10
1614;DHT22;800;48.824;9.346;2024-01-11T12:47:44;9.40;41.70
1614;DHT22;800;48.824;9.346;2024-01-11T12:50:11;9.40;41.90
1614;DHT22;800;48.824;9.346;2024-01-11T12:52:38;9.50;42.20
1614;DHT22;800;48.824;9.346;2024-01-11T12:55:04;9.60;42.00
1614;DHT22;800;48.824;9.346;2024-01-11T12:57:29;9.50;41.90
1614;DHT22;800;48.824;9.346;2024-01-11T13:00:12;9.60;41.70
1614;DHT22;800;48.824;9.346;2024-01-11T13:02:39;9.50;42.00
1614;DHT22;800;48.824;9.346;2024-01-11T13:05:05;9.70;41.60
1614;DHT22;800;48.824;9.346;2024-01-11T13:07:31;9.80;41.10
1614;DHT22;800;48.824;9.346;2024-01-11T13:09:57;9.90;40.80
1614;DHT22;800;48.824;9.346;2024-01-11T13:12:23;9.90;40.60
1614;DHT22;800;48.824;9.346;2024-01-11T13:14:48;10.00;39.80
1614;DHT22;800;48.824;9.346;2024-01-11T13:17:16;10.00;39.70
1614;DHT22;800;48.824;9.346;2024-01-11T13:19:41;10.10;39.80
1614;DHT22;800;48.824;9.346;2024-01-11T13:22:07;10.30;40.70
1614;DHT22;800;48.824;9.346;2024-01-11T13:24:32;10.60;40.80
1614;DHT22;800;48.824;9.346;2024-01-11T13:26:58;10.70;39.20
1614;DHT22;800;48.824;9.346;2024-01-11T13:29:24;10.80;38.70
1614;DHT22;800;48.824;9.346;2024-01-11T13:31:49;10.80;38.40
1614;DHT22;800;48.824;9.346;2024-01-11T13:34:15;10.80;38.40
1614;DHT22;800;48.824;9.346;2024-01-11T13:36:40;10.80;38.40
1614;DHT22;800;48.824;9.346;2024-01-11T13:39:06;10.70;38.70
1614;DHT22;800;48.824;9.346;2024-01-11T13:41:34;10.70;39.10
1614;DHT22;800;48.824;9.346;2024-01-11T13:43:59;10.70;38.80
1614;DHT22;800;48.824;9.346;2024-01-11T13:46:25;10.70;38.90
1614;DHT22;800;48.824;9.346;2024-01-11T13:48:50;10.40;39.00
1614;DHT22;800;48.824;9.346;2024-01-11T13:51:16;10.40;39.10
1614;DHT22;800;48.824;9.346;2024-01-11T13:53:42;10.50;39.10
1614;DHT22;800;48.824;9.346;2024-01-11T13:56:08;10.60;39.10
1614;DHT22;800;48.824;9.346;2024-01-11T13:58:34;10.50;39.00
1614;DHT22;800;48.824;9.346;2024-01-11T14:00:59;10.50;38.70
1614;DHT22;800;48.824;9.346;2024-01-11T14:03:25;10.60;38.70
1614;DHT22;800;48.824;9.346;2024-01-11T14:05:51;10.60;38.40
1614;DHT22;800;48.824;9.346;2024-01-11T14:08:17;10.70;38.70
1614;DHT22;800;48.824;9.346;2024-01-11T14:10:42;10.60;38.70
1614;DHT22;800;48.824;9.346;2024-01-11T14:13:08;10.60;39.00
1614;DHT22;800;48.824;9.346;2024-01-11T14:15:34;10.60;39.10
1614;DHT22;800;48.824;9.346;2024-01-11T14:18:00;10.60;39.20
1614;DHT22;800;48.824;9.346;2024-01-11T14:20:26;10.60;39.00
1614;DHT22;800;48.824;9.346;2024-01-11T14:22:52;10.40;39.10
1614;DHT22;800;48.824;9.346;2024-01-11T14:25:19;10.40;39.60
1614;DHT22;800;48.824;9.346;2024-01-11T14:27:48;10.40;39.70
1614;DHT22;800;48.824;9.346;2024-01-11T14:30:14;10.40;39.70
1614;DHT22;800;48.824;9.346;2024-01-11T14:32:40;10.30;39.70
1614;DHT22;800;48.824;9.346;2024-01-11T14:35:07;10.30;39.70
1614;DHT22;800;48.824;9.346;2024-01-11T14:37:34;10.30;39.70
1614;DHT22;800;48.824;9.346;2024-01-11T14:40:00;10.30;39.70
1614;DHT22;800;48.824;9.346;2024-01-11T14:42:27;10.30;39.50
1614;DHT22;800;48.824;9.346;2024-01-11T14:44:53;10.30;39.40
1614;DHT22;800;48.824;9.346;2024-01-11T14:47:19;10.20;39.50
1614;DHT22;800;48.824;9.346;2024-01-11T14:49:45;10.10;39.50
1614;DHT22;800;48.824;9.346;2024-01-11T14:52:11;10.10;39.40
1614;DHT22;800;48.824;9.346;2024-01-11T14:54:37;10.10;39.30
1614;DHT22;800;48.824;9.346;2024-01-11T14:57:03;9.90;40.40
1614;DHT22;800;48.824;9.346;2024-01-11T14:59:30;9.90;40.40
1614;DHT22;800;48.824;9.346;2024-01-11T15:01:56;9.90;40.50
1614;DHT22;800;48.824;9.346;2024-01-11T15:04:21;9.90;40.60
1614;DHT22;800;48.824;9.346;2024-01-11T15:06:47;9.70;40.70
1614;DHT22;800;48.824;9.346;2024-01-11T15:09:13;9.70;40.70
1614;DHT22;800;48.824;9.346;2024-01-11T15:11:39;9.60;40.90
1614;DHT22;800;48.824;9.346;2024-01-11T15:14:05;9.60;41.00
1614;DHT22;800;48.824;9.346;2024-01-11T15:16:32;9.50;41.10
1614;DHT22;800;48.824;9.346;2024-01-11T15:18:57;9.50;41.20
1614;DHT22;800;48.824;9.346;2024-01-11T15:21:23;9.40;41.80
1614;DHT22;800;48.824;9.346;2024-01-11T15:23:48;9.40;41.20
1614;DHT22;800;48.824;9.346;2024-01-11T15:26:14;9.30;41.40
1614;DHT22;800;48.824;9.346;2024-01-11T15:28:39;9.20;41.50
1614;DHT22;800;48.824;9.346;2024-01-11T15:31:05;9.10;41.60
1614;DHT22;800;48.824;9.346;2024-01-11T15:33:31;9.10;41.70
1614;DHT22;800;48.824;9.346;2024-01-11T15:35:57;8.90;41.80
1614;DHT22;800;48.824;9.346;2024-01-11T15:38:22;8.80;42.10
1614;DHT22;800;48.824;9.346;2024-01-11T15:40:48;8.80;42.40
1614;DHT22;800;48.824;9.346;2024-01-11T15:43:13;8.60;42.30
1614;DHT22;800;48.824;9.346;2024-01-11T15:45:39;8.60;42.40
1614;DHT22;800;48.824;9.346;2024-01-11T15:48:04;8.50;42.50
1614;DHT22;800;48.824;9.346;2024-01-11T15:50:31;8.50;42.60
1614;DHT22;800;48.824;9.346;2024-01-11T15:52:56;8.40;42.70
1614;DHT22;800;48.824;9.346;2024-01-11T15:55:22;8.30;42.70
1614;DHT22;800;48.824;9.346;2024-01-11T15:57:47;8.20;43.00
1614;DHT22;800;48.824;9.346;2024-01-11T16:00:13;8.10;43.10
1614;DHT22;800;48.824;9.346;2024-01-11T16:02:39;8.10;43.20
1614;DHT22;800;48.824;9.346;2024-01-11T16:05:07;8.00;43.20
1614;DHT22;800;48.824;9.346;2024-01-11T16:07:33;8.00;43.50
1614;DHT22;800;48.824;9.346;2024-01-11T16:09:58;7.90;43.60
1614;DHT22;800;48.824;9.346;2024-01-11T16:12:24;7.90;43.60
1614;DHT22;800;48.824;9.346;2024-01-11T16:14:50;7.90;43.60
1614;DHT22;800;48.824;9.346;2024-01-11T16:17:16;7.80;43.80
1614;DHT22;800;48.824;9.346;2024-01-11T16:19:42;7.80;43.80
1614;DHT22;800;48.824;9.346;2024-01-11T16:22:08;7.70;43.80
1614;DHT22;800;48.824;9.346;2024-01-11T16:24:33;7.60;44.10
1614;DHT22;800;48.824;9.346;2024-01-11T16:26:59;7.60;44.30